createdAt,value
2018-06-20T00:00:19.498Z,41.50
2018-06-20T00:01:19.972Z,41.52
2018-06-20T00:02:20.460Z,41.65
2018-06-20T00:03:20.920Z,41.49
2018-06-20T00:04:21.395Z,41.29
2018-06-20T00:05:21.865Z,41.58
2018-06-20T00:06:22.338Z,41.48
2018-06-20T00:07:22.930Z,41.51
2018-06-20T00:08:23.283Z,41.61
2018-06-20T00:09:23.756Z,41.67
2018-06-20T00:10:24.227Z,41.73
2018-06-20T00:11:24.704Z,41.67
2018-06-20T00:12:25.172Z,41.73
2018-06-20T00:13:25.644Z,41.69
2018-06-20T00:14:26.115Z,41.76
2018-06-20T00:15:26.587Z,41.92
2018-06-20T00:16:27.057Z,41.66
2018-06-20T00:17:27.582Z,41.68
2018-06-20T00:18:28.001Z,41.68
2018-06-20T00:19:28.473Z,41.71
2018-06-20T00:20:28.945Z,41.84
2018-06-20T00:21:29.414Z,42.00
2018-06-20T00:22:29.888Z,42.06
2018-06-20T00:23:30.358Z,42.09
2018-06-20T00:24:30.829Z,42.16
2018-06-20T00:25:31.299Z,42.12
2018-06-20T00:26:31.769Z,42.22
2018-06-20T00:27:32.241Z,42.34
2018-06-20T00:28:32.711Z,42.34
2018-06-20T00:29:33.182Z,42.40
2018-06-20T00:30:33.654Z,42.40
2018-06-20T00:31:34.127Z,42.85
2018-06-20T00:32:34.647Z,42.72
2018-06-20T00:33:35.068Z,43.04
2018-06-20T00:34:35.539Z,42.88
2018-06-20T00:35:36.014Z,42.52
2018-06-20T00:36:36.483Z,42.65
2018-06-20T00:37:36.956Z,42.42
2018-06-20T00:38:37.428Z,42.16
2018-06-20T00:39:37.899Z,42.41
2018-06-20T00:40:38.370Z,42.41
2018-06-20T00:41:38.845Z,42.18
2018-06-20T00:42:39.368Z,42.18
2018-06-20T00:43:39.791Z,42.37
2018-06-20T00:44:40.262Z,42.24
2018-06-20T00:45:40.738Z,42.33
2018-06-20T00:46:41.210Z,42.04
2018-06-20T00:47:41.685Z,41.78
2018-06-20T00:48:42.158Z,41.78
2018-06-20T00:49:42.631Z,41.71
2018-06-20T00:50:43.108Z,41.71
2018-06-20T00:51:43.581Z,41.51
2018-06-20T00:52:44.054Z,42.02
2018-06-20T00:53:44.533Z,41.89
2018-06-20T00:54:45.006Z,42.02
2018-06-20T00:55:45.481Z,42.05
2018-06-20T00:56:45.954Z,42.08
2018-06-20T00:57:46.429Z,42.14
2018-06-20T00:58:46.904Z,42.17
2018-06-20T00:59:47.380Z,42.33
2018-06-20T01:00:47.854Z,42.33
2018-06-20T01:01:48.328Z,42.46
2018-06-20T01:02:48.854Z,42.36
2018-06-20T01:03:49.282Z,42.52
2018-06-20T01:04:49.753Z,42.81
2018-06-20T01:05:50.226Z,42.55
2018-06-20T01:06:50.704Z,42.58
2018-06-20T01:07:51.178Z,42.74
2018-06-20T01:08:51.651Z,42.90
2018-06-20T01:09:52.125Z,43.02
2018-06-20T01:10:52.599Z,42.90
2018-06-20T01:11:53.199Z,43.15
2018-06-20T01:12:53.597Z,43.41
2018-06-20T01:13:54.022Z,43.08
2018-06-20T01:14:54.500Z,43.34
2018-06-20T01:15:54.966Z,43.50
2018-06-20T01:17:55.912Z,43.53
2018-06-20T01:18:56.386Z,43.78
2018-06-20T01:19:56.858Z,43.52
2018-06-20T01:20:57.332Z,43.55
2018-06-20T01:21:57.804Z,43.81
2018-06-20T01:22:58.327Z,43.58
2018-06-20T01:23:58.753Z,43.80
2018-06-20T01:24:59.221Z,43.87
2018-06-20T01:25:59.693Z,44.22
2018-06-20T01:27:00.165Z,43.90
2018-06-20T01:28:00.637Z,43.99
2018-06-20T01:29:01.108Z,44.02
2018-06-20T01:30:01.581Z,43.83
2018-06-20T01:31:02.052Z,44.15
2018-06-20T01:32:02.522Z,43.98
2018-06-20T01:33:03.044Z,44.18
2018-06-20T01:34:03.467Z,44.05
2018-06-20T01:35:03.937Z,44.14
2018-06-20T01:36:04.407Z,44.08
2018-06-20T01:37:04.879Z,44.26
2018-06-20T01:38:05.408Z,44.46
2018-06-20T01:39:05.818Z,44.45
2018-06-20T01:40:06.289Z,44.48
2018-06-20T01:41:06.760Z,44.58
2018-06-20T01:42:07.233Z,44.58
2018-06-20T01:43:07.753Z,44.64
2018-06-20T01:44:08.174Z,44.70
2018-06-20T01:45:08.645Z,44.61
2018-06-20T01:46:09.140Z,44.80
2018-06-20T01:47:09.589Z,44.79
2018-06-20T01:48:10.110Z,44.76
2018-06-20T01:49:10.538Z,44.82
2018-06-20T01:50:11.005Z,44.89
2018-06-20T01:51:11.476Z,45.01
2018-06-20T01:52:11.948Z,44.82
2018-06-20T01:53:12.470Z,44.98
2018-06-20T01:54:12.892Z,45.01
2018-06-20T01:55:13.365Z,45.17
2018-06-20T01:56:13.840Z,45.23
2018-06-20T01:57:14.310Z,45.23
2018-06-20T01:58:14.837Z,45.22
2018-06-20T01:59:15.261Z,45.38
2018-06-20T02:00:15.730Z,45.38
2018-06-20T02:01:16.204Z,45.38
2018-06-20T02:02:16.677Z,45.50
2018-06-20T02:03:17.152Z,45.53
2018-06-20T02:04:17.628Z,45.53
2018-06-20T02:05:18.100Z,45.50
2018-06-20T02:06:18.580Z,45.28
2018-06-20T02:07:19.050Z,45.47
2018-06-20T02:08:19.527Z,45.62
2018-06-20T02:09:20.001Z,45.65
2018-06-20T02:10:20.474Z,45.62
2018-06-20T02:11:20.950Z,45.68
2018-06-20T02:12:21.424Z,45.74
2018-06-20T02:13:21.949Z,45.75
2018-06-20T02:14:22.375Z,45.84
2018-06-20T02:15:22.848Z,45.83
2018-06-20T02:16:23.323Z,45.83
2018-06-20T02:17:23.798Z,45.89
2018-06-20T02:18:24.272Z,45.92
2018-06-20T02:19:24.746Z,45.99
2018-06-20T02:20:25.226Z,46.11
2018-06-20T02:21:25.695Z,46.08
2018-06-20T02:22:26.169Z,46.17
2018-06-20T02:23:26.694Z,46.20
2018-06-20T02:24:27.122Z,46.36
2018-06-20T02:25:27.588Z,46.36
2018-06-20T02:26:28.063Z,46.45
2018-06-20T02:27:28.539Z,46.35
2018-06-20T02:28:29.010Z,46.35
2018-06-20T02:29:29.482Z,46.44
2018-06-20T02:30:29.957Z,46.57
2018-06-20T02:31:30.439Z,46.63
2018-06-20T02:32:30.901Z,46.69
2018-06-20T02:33:31.373Z,46.66
2018-06-20T02:34:31.845Z,46.62
2018-06-20T02:35:32.319Z,46.75
2018-06-20T02:36:32.802Z,46.50
2018-06-20T02:37:33.259Z,46.93
2018-06-20T02:38:33.736Z,47.00
2018-06-20T02:39:34.208Z,46.96
2018-06-20T02:40:34.676Z,46.90
2018-06-20T02:41:35.145Z,46.71
2018-06-20T02:42:35.619Z,46.99
2018-06-20T02:43:36.090Z,47.02
2018-06-20T02:44:36.560Z,47.14
2018-06-20T02:45:37.030Z,47.26
2018-06-20T02:46:37.505Z,47.23
2018-06-20T02:47:37.973Z,47.45
2018-06-20T02:48:38.444Z,47.32
2018-06-20T02:49:38.913Z,47.29
2018-06-20T02:50:39.384Z,47.32
2018-06-20T02:51:39.855Z,47.35
2018-06-20T02:52:40.350Z,47.35
2018-06-20T02:53:40.846Z,47.10
2018-06-20T02:54:41.268Z,47.38
2018-06-20T02:55:41.739Z,47.53
2018-06-20T02:56:42.214Z,47.63
2018-06-20T02:57:42.681Z,47.75
2018-06-20T02:58:43.154Z,47.62
2018-06-20T02:59:43.628Z,47.62
2018-06-20T03:00:44.097Z,47.90
2018-06-20T03:01:44.568Z,47.87
2018-06-20T03:02:45.042Z,47.74
2018-06-20T03:03:45.563Z,47.83
2018-06-20T03:04:45.988Z,48.02
2018-06-20T03:05:46.457Z,47.99
2018-06-20T03:06:46.930Z,47.99
2018-06-20T03:07:47.404Z,47.76
2018-06-20T03:08:47.927Z,47.86
2018-06-20T03:09:48.351Z,48.26
2018-06-20T03:10:48.823Z,48.20
2018-06-20T03:11:49.298Z,48.32
2018-06-20T03:12:49.771Z,48.23
2018-06-20T03:13:50.294Z,48.16
2018-06-20T03:14:50.719Z,48.29
2018-06-20T03:15:51.192Z,48.25
2018-06-20T03:16:51.668Z,48.35
2018-06-20T03:17:52.141Z,48.44
2018-06-20T03:18:52.667Z,48.44
2018-06-20T03:19:53.096Z,48.37
2018-06-20T03:20:53.565Z,48.59
2018-06-20T03:21:54.039Z,48.59
2018-06-20T03:22:54.516Z,48.56
2018-06-20T03:23:54.991Z,48.46
2018-06-20T03:24:55.467Z,48.56
2018-06-20T03:25:55.939Z,48.52
2018-06-20T03:26:56.415Z,48.61
2018-06-20T03:27:56.889Z,48.55
2018-06-20T03:28:57.364Z,48.58
2018-06-20T03:29:57.840Z,48.64
2018-06-20T03:30:58.312Z,48.70
2018-06-20T03:31:58.787Z,48.80
2018-06-20T03:32:59.261Z,48.76
2018-06-20T03:33:59.787Z,48.76
2018-06-20T03:35:00.208Z,48.83
2018-06-20T03:36:00.681Z,48.76
2018-06-20T03:37:01.153Z,48.82
2018-06-20T03:38:01.628Z,48.85
2018-06-20T03:39:02.107Z,48.88
2018-06-20T03:40:02.576Z,48.91
2018-06-20T03:41:03.048Z,48.79
2018-06-20T03:42:03.524Z,48.94
2018-06-20T03:43:03.992Z,48.97
2018-06-20T03:44:04.464Z,49.06
2018-06-20T03:45:04.937Z,48.94
2018-06-20T03:46:05.408Z,49.00
2018-06-20T03:47:05.881Z,48.94
2018-06-20T03:48:06.350Z,49.00
2018-06-20T03:49:06.823Z,49.00
2018-06-20T03:50:07.296Z,49.00
2018-06-20T03:51:07.767Z,49.13
2018-06-20T03:52:08.238Z,49.19
2018-06-20T03:53:08.709Z,49.13
2018-06-20T03:54:09.256Z,49.19
2018-06-20T03:55:09.654Z,49.25
2018-06-20T03:56:10.122Z,49.28
2018-06-20T03:57:10.594Z,49.35
2018-06-20T03:58:11.064Z,49.47
2018-06-20T03:59:11.585Z,49.38
2018-06-20T04:00:12.010Z,49.44
2018-06-20T04:01:12.478Z,49.56
2018-06-20T04:02:12.978Z,49.51
2018-06-20T04:03:13.422Z,49.54
2018-06-20T04:04:13.893Z,49.60
2018-06-20T04:05:14.364Z,49.54
2018-06-20T04:06:14.833Z,49.61
2018-06-20T04:07:15.306Z,49.58
2018-06-20T04:08:15.780Z,49.52
2018-06-20T04:09:16.249Z,49.55
2018-06-20T04:10:16.721Z,49.58
2018-06-20T04:11:17.194Z,49.56
2018-06-20T04:12:17.670Z,49.59
2018-06-20T04:13:18.139Z,49.59
2018-06-20T04:14:18.664Z,49.51
2018-06-20T04:15:19.086Z,49.54
2018-06-20T04:16:19.561Z,49.51
2018-06-20T04:17:20.061Z,49.45
2018-06-20T04:18:20.512Z,49.61
2018-06-20T04:19:21.034Z,49.46
2018-06-20T04:20:21.455Z,49.46
2018-06-20T04:21:21.930Z,49.44
2018-06-20T04:22:22.405Z,49.57
2018-06-20T04:23:22.880Z,49.45
2018-06-20T04:24:23.357Z,49.48
2018-06-20T04:25:23.831Z,49.42
2018-06-20T04:26:24.303Z,49.40
2018-06-20T04:27:24.778Z,49.31
2018-06-20T04:28:25.459Z,49.25
2018-06-20T04:29:25.781Z,49.26
2018-06-20T04:30:26.211Z,49.29
2018-06-20T04:31:26.682Z,49.27
2018-06-20T04:32:27.157Z,49.27
2018-06-20T04:33:27.633Z,49.25
2018-06-20T04:34:28.108Z,49.28
2018-06-20T04:35:28.592Z,49.26
2018-06-20T04:36:29.102Z,49.29
2018-06-20T04:37:29.535Z,49.24
2018-06-20T04:38:30.019Z,49.21
2018-06-20T04:39:30.487Z,49.19
2018-06-20T04:40:30.970Z,49.19
2018-06-20T04:41:31.436Z,49.14
2018-06-20T04:42:31.909Z,49.11
2018-06-20T04:43:32.389Z,49.08
2018-06-20T04:44:32.943Z,49.00
2018-06-20T04:45:33.337Z,48.94
2018-06-20T04:46:33.807Z,48.92
2018-06-20T04:47:34.283Z,48.83
2018-06-20T04:48:34.758Z,48.84
2018-06-20T04:49:35.232Z,48.87
2018-06-20T04:50:35.704Z,48.82
2018-06-20T04:51:36.180Z,48.73
2018-06-20T04:52:36.656Z,48.64
2018-06-20T04:53:37.126Z,48.62
2018-06-20T04:54:37.651Z,48.63
2018-06-20T04:55:38.137Z,48.51
2018-06-20T04:56:38.549Z,48.51
2018-06-20T04:57:39.021Z,48.52
2018-06-20T04:58:39.494Z,48.53
2018-06-20T04:59:40.017Z,48.57
2018-06-20T05:00:40.442Z,48.57
2018-06-20T05:01:40.914Z,48.52
2018-06-20T05:02:41.385Z,48.43
2018-06-20T05:03:41.859Z,48.47
2018-06-20T05:04:42.383Z,48.45
2018-06-20T05:05:42.807Z,48.39
2018-06-20T05:06:43.282Z,48.36
2018-06-20T05:07:43.749Z,48.40
2018-06-20T05:08:44.226Z,48.35
2018-06-20T05:09:44.694Z,48.35
2018-06-20T05:10:45.167Z,48.30
2018-06-20T05:11:45.640Z,48.21
2018-06-20T05:12:46.113Z,48.06
2018-06-20T05:13:46.582Z,48.01
2018-06-20T05:14:47.054Z,48.07
2018-06-20T05:15:47.527Z,48.05
2018-06-20T05:16:47.999Z,47.96
2018-06-20T05:17:48.470Z,47.91
2018-06-20T05:18:48.939Z,47.82
2018-06-20T05:19:49.465Z,47.76
2018-06-20T05:20:49.884Z,47.71
2018-06-20T05:21:50.358Z,47.68
2018-06-20T05:22:50.829Z,47.63
2018-06-20T05:23:51.300Z,47.63
2018-06-20T05:24:51.825Z,47.58
2018-06-20T05:25:52.247Z,47.52
2018-06-20T05:26:52.717Z,47.47
2018-06-20T05:27:53.191Z,47.47
2018-06-20T05:28:53.663Z,47.48
2018-06-20T05:29:54.136Z,47.39
2018-06-20T05:30:54.612Z,47.37
2018-06-20T05:31:55.082Z,47.34
2018-06-20T05:32:55.571Z,47.32
2018-06-20T05:33:56.031Z,47.26
2018-06-20T05:34:56.559Z,47.27
2018-06-20T05:35:56.980Z,47.21
2018-06-20T05:36:57.454Z,47.25
2018-06-20T05:37:57.932Z,47.20
2018-06-20T05:38:58.407Z,47.17
2018-06-20T05:39:58.928Z,47.15
2018-06-20T05:40:59.355Z,47.12
2018-06-20T05:41:59.829Z,47.06
2018-06-20T05:43:00.306Z,47.07
2018-06-20T05:44:00.782Z,47.02
2018-06-20T05:45:01.258Z,46.99
2018-06-20T05:46:01.740Z,46.97
2018-06-20T05:47:02.211Z,46.97
2018-06-20T05:48:02.689Z,46.95
2018-06-20T05:49:03.164Z,46.92
2018-06-20T05:50:03.644Z,46.90
2018-06-20T05:51:04.117Z,46.91
2018-06-20T05:52:04.594Z,46.91
2018-06-20T05:53:05.078Z,46.89
2018-06-20T05:54:05.552Z,46.86
2018-06-20T05:55:06.077Z,46.77
2018-06-20T05:56:06.501Z,46.75
2018-06-20T05:57:06.977Z,46.69
2018-06-20T05:58:07.455Z,46.60
2018-06-20T05:59:07.929Z,46.55
2018-06-20T06:00:08.456Z,46.49
2018-06-20T06:01:08.884Z,46.44
2018-06-20T06:02:09.361Z,46.35
2018-06-20T06:03:09.836Z,46.29
2018-06-20T06:04:10.311Z,46.26
2018-06-20T06:05:10.870Z,46.24
2018-06-20T06:06:11.267Z,46.18
2018-06-20T06:07:11.743Z,46.09
2018-06-20T06:08:12.218Z,46.04
2018-06-20T06:09:12.694Z,45.98
2018-06-20T06:10:13.171Z,45.99
2018-06-20T06:11:13.648Z,45.93
2018-06-20T06:12:14.127Z,45.87
2018-06-20T06:13:14.614Z,45.88
2018-06-20T06:14:15.076Z,45.79
2018-06-20T06:15:15.556Z,45.77
2018-06-20T06:16:16.026Z,45.71
2018-06-20T06:17:16.503Z,45.62
2018-06-20T06:18:16.978Z,45.63
2018-06-20T06:19:17.452Z,45.63
2018-06-20T06:20:17.930Z,45.55
2018-06-20T06:21:18.406Z,45.58
2018-06-20T06:22:18.881Z,45.59
2018-06-20T06:23:19.413Z,45.56
2018-06-20T06:24:19.839Z,45.60
2018-06-20T06:25:20.304Z,45.64
2018-06-20T06:26:20.781Z,45.61
2018-06-20T06:27:21.254Z,45.56
2018-06-20T06:28:21.729Z,45.53
2018-06-20T06:29:22.205Z,45.60
2018-06-20T06:30:22.680Z,45.61
2018-06-20T06:31:23.160Z,45.58
2018-06-20T06:32:23.630Z,45.56
2018-06-20T06:33:24.306Z,45.56
2018-06-20T06:34:24.581Z,45.57
2018-06-20T06:35:25.053Z,45.61
2018-06-20T06:36:25.529Z,45.58
2018-06-20T06:37:26.178Z,45.59
2018-06-20T06:38:26.482Z,45.53
2018-06-20T06:39:26.953Z,45.60
2018-06-20T06:40:27.480Z,45.61
2018-06-20T06:41:27.903Z,45.59
2018-06-20T06:42:28.378Z,45.56
2018-06-20T06:43:28.852Z,45.57
2018-06-20T06:44:29.327Z,45.60
2018-06-20T06:45:29.806Z,45.58
2018-06-20T06:46:30.279Z,45.62
2018-06-20T06:47:30.751Z,45.59
2018-06-20T06:48:31.225Z,45.53
2018-06-20T06:49:31.707Z,45.54
2018-06-20T06:50:32.226Z,45.51
2018-06-20T06:51:32.649Z,45.56
2018-06-20T06:52:33.128Z,45.56
2018-06-20T06:53:33.599Z,45.60
2018-06-20T06:54:34.073Z,45.54
2018-06-20T06:55:34.597Z,45.51
2018-06-20T06:56:35.020Z,45.49
2018-06-20T06:57:35.496Z,45.47
2018-06-20T06:58:35.974Z,45.50
2018-06-20T06:59:36.445Z,45.48
2018-06-20T07:00:36.971Z,45.55
2018-06-20T07:01:37.393Z,45.49
2018-06-20T07:02:37.906Z,45.43
2018-06-20T07:03:38.342Z,45.44
2018-06-20T07:04:38.817Z,45.41
2018-06-20T07:05:39.320Z,45.39
2018-06-20T07:06:39.778Z,45.39
2018-06-20T07:07:40.240Z,45.40
2018-06-20T07:08:40.714Z,45.34
2018-06-20T07:09:41.190Z,45.35
2018-06-20T07:10:41.715Z,45.32
2018-06-20T07:11:42.138Z,45.27
2018-06-20T07:12:42.635Z,45.27
2018-06-20T07:13:43.089Z,45.25
2018-06-20T07:14:43.562Z,45.25
2018-06-20T07:15:44.085Z,45.19
2018-06-20T07:16:44.511Z,45.17
2018-06-20T07:17:44.985Z,45.14
2018-06-20T07:18:45.460Z,45.05
2018-06-20T07:19:45.934Z,45.06
2018-06-20T07:20:46.460Z,44.97
2018-06-20T07:21:46.884Z,45.00
2018-06-20T07:22:47.363Z,44.98
2018-06-20T07:23:47.831Z,44.95
2018-06-20T07:24:48.306Z,44.86
2018-06-20T07:25:49.034Z,44.83
2018-06-20T07:26:49.257Z,44.87
2018-06-20T07:27:49.731Z,44.78
2018-06-20T07:28:50.205Z,44.75
2018-06-20T07:29:50.697Z,44.69
2018-06-20T07:30:51.207Z,44.64
2018-06-20T07:31:51.628Z,44.71
2018-06-20T07:32:52.109Z,44.71
2018-06-20T07:33:52.577Z,44.62
2018-06-20T07:34:53.058Z,44.60
2018-06-20T07:35:53.632Z,44.60
2018-06-20T07:36:54.003Z,44.74
2018-06-20T07:37:54.478Z,44.81
2018-06-20T07:38:54.952Z,44.72
2018-06-20T07:39:55.427Z,44.63
2018-06-20T07:40:55.952Z,44.70
2018-06-20T07:41:56.379Z,44.67
2018-06-20T07:42:56.852Z,44.74
2018-06-20T07:43:57.329Z,44.72
2018-06-20T07:44:57.825Z,44.79
2018-06-20T07:45:58.276Z,44.73
2018-06-20T07:46:58.751Z,44.57
2018-06-20T07:47:59.354Z,44.42
2018-06-20T07:48:59.703Z,44.49
2018-06-20T07:50:00.176Z,44.43
2018-06-20T07:51:00.704Z,44.34
2018-06-20T07:52:01.126Z,44.31
2018-06-20T07:53:01.602Z,44.19
2018-06-20T07:54:02.080Z,44.13
2018-06-20T07:55:02.552Z,44.04
2018-06-20T07:56:03.079Z,43.94
2018-06-20T07:57:03.502Z,43.88
2018-06-20T07:58:03.979Z,43.82
2018-06-20T07:59:04.453Z,43.83
2018-06-20T08:00:04.928Z,43.70
2018-06-20T08:01:05.533Z,43.61
2018-06-20T08:02:05.883Z,43.58
2018-06-20T08:03:06.358Z,43.62
2018-06-20T08:04:06.833Z,43.56
2018-06-20T08:05:07.306Z,43.60
2018-06-20T08:06:07.780Z,43.54
2018-06-20T08:07:08.258Z,43.57
2018-06-20T08:08:08.732Z,43.55
2018-06-20T08:09:09.208Z,43.65
2018-06-20T08:10:09.683Z,43.69
2018-06-20T08:11:10.215Z,43.76
2018-06-20T08:12:10.634Z,43.70
2018-06-20T08:13:11.119Z,43.77
2018-06-20T08:14:11.586Z,43.81
2018-06-20T08:15:12.064Z,43.88
2018-06-20T08:16:12.540Z,43.85
2018-06-20T08:17:13.013Z,43.85
2018-06-20T08:18:13.492Z,43.93
2018-06-20T08:19:13.973Z,43.96
2018-06-20T08:20:14.441Z,43.93
2018-06-20T08:21:14.968Z,43.94
2018-06-20T08:22:15.394Z,43.81
2018-06-20T08:23:15.870Z,43.78
2018-06-20T08:24:16.346Z,43.75
2018-06-20T08:25:16.824Z,43.76
2018-06-20T08:26:17.297Z,43.70
2018-06-20T08:27:17.776Z,43.57
2018-06-20T08:28:18.250Z,43.61
2018-06-20T08:29:18.728Z,43.48
2018-06-20T08:30:19.203Z,43.45
2018-06-20T08:31:19.731Z,43.52
2018-06-20T08:32:20.156Z,43.50
2018-06-20T08:33:20.631Z,43.40
2018-06-20T08:34:21.109Z,43.44
2018-06-20T08:35:21.586Z,43.42
2018-06-20T08:36:22.111Z,43.29
2018-06-20T08:37:22.538Z,43.16
2018-06-20T08:38:23.014Z,43.17
2018-06-20T08:39:23.494Z,43.08
2018-06-20T08:40:23.967Z,42.92
2018-06-20T08:41:24.508Z,42.89
2018-06-20T08:42:24.979Z,42.66
2018-06-20T08:43:25.397Z,42.67
2018-06-20T08:44:25.876Z,42.48
2018-06-20T08:45:26.351Z,42.52
2018-06-20T08:46:26.880Z,42.40
2018-06-20T08:47:27.308Z,42.17
2018-06-20T08:48:27.782Z,42.11
2018-06-20T08:49:28.261Z,42.12
2018-06-20T08:50:28.737Z,41.96
2018-06-20T08:51:29.214Z,41.90
2018-06-20T08:52:29.691Z,41.78
2018-06-20T08:53:30.167Z,41.62
2018-06-20T08:54:30.645Z,41.39
2018-06-20T08:55:31.122Z,41.23
2018-06-20T08:56:31.599Z,41.18
2018-06-20T08:57:32.076Z,40.98
2018-06-20T08:58:32.554Z,40.85
2018-06-20T08:59:33.033Z,40.59
2018-06-20T09:00:33.508Z,40.50
2018-06-20T09:01:34.036Z,40.27
2018-06-20T09:02:34.465Z,40.21
2018-06-20T09:03:34.941Z,39.95
2018-06-20T09:04:35.417Z,39.82
2018-06-20T09:05:35.895Z,39.72
2018-06-20T09:06:36.375Z,39.56
2018-06-20T09:07:36.853Z,39.63
2018-06-20T09:08:37.376Z,39.47
2018-06-20T09:09:37.807Z,39.33
2018-06-20T09:10:38.287Z,39.24
2018-06-20T09:11:38.816Z,39.11
2018-06-20T09:12:39.244Z,39.01
2018-06-20T09:13:39.718Z,38.71
2018-06-20T09:14:40.197Z,38.85
2018-06-20T09:15:40.677Z,38.58
2018-06-20T09:16:41.203Z,38.65
2018-06-20T09:17:41.631Z,38.52
2018-06-20T09:18:42.110Z,38.39
2018-06-20T09:19:42.592Z,38.46
2018-06-20T09:20:43.064Z,38.16
2018-06-20T09:21:43.543Z,38.13
2018-06-20T09:22:44.023Z,38.16
2018-06-20T09:23:44.502Z,38.00
2018-06-20T09:24:44.980Z,37.93
2018-06-20T09:25:45.457Z,37.80
2018-06-20T09:26:45.988Z,37.87
2018-06-20T09:27:46.414Z,37.73
2018-06-20T09:28:46.896Z,37.73
2018-06-20T09:29:47.372Z,37.74
2018-06-20T09:30:47.849Z,37.46
2018-06-20T09:31:48.329Z,37.60
2018-06-20T09:32:48.807Z,37.53
2018-06-20T09:33:49.286Z,37.60
2018-06-20T09:34:49.765Z,37.60
2018-06-20T09:35:50.247Z,37.47
2018-06-20T09:36:50.722Z,37.64
2018-06-20T09:37:51.201Z,37.53
2018-06-20T09:38:51.682Z,37.46
2018-06-20T09:39:52.161Z,37.57
2018-06-20T09:40:52.638Z,37.60
2018-06-20T09:41:53.121Z,37.91
2018-06-20T09:42:53.597Z,37.67
2018-06-20T09:43:54.077Z,37.84
2018-06-20T09:44:54.555Z,37.77
2018-06-20T09:45:55.033Z,37.87
2018-06-20T09:46:55.562Z,37.94
2018-06-20T09:47:55.992Z,37.90
2018-06-20T09:48:56.476Z,37.66
2018-06-20T09:49:56.949Z,38.21
2018-06-20T09:50:57.431Z,38.00
2018-06-20T09:51:57.913Z,38.34
2018-06-20T09:52:58.390Z,38.20
2018-06-20T09:53:58.868Z,38.06
2018-06-20T09:54:59.347Z,37.92
2018-06-20T09:55:59.843Z,38.13
2018-06-20T09:57:00.361Z,38.16
2018-06-20T09:58:00.815Z,38.13
2018-06-20T09:59:01.268Z,38.33
2018-06-20T10:00:01.747Z,38.40
2018-06-20T10:01:02.230Z,38.67
2018-06-20T10:02:02.711Z,38.46
2018-06-20T10:03:03.187Z,38.60
2018-06-20T10:04:03.673Z,38.66
2018-06-20T10:05:04.144Z,38.83
2018-06-20T10:06:04.626Z,38.79
2018-06-20T10:07:05.106Z,38.93
2018-06-20T10:08:05.592Z,39.13
2018-06-20T10:09:06.066Z,39.17
2018-06-20T10:10:06.546Z,38.85
2018-06-20T10:11:07.068Z,39.54
2018-06-20T10:12:07.506Z,39.33
2018-06-20T10:13:08.012Z,39.29
2018-06-20T10:14:08.464Z,39.46
2018-06-20T10:15:08.945Z,39.33
2018-06-20T10:16:09.425Z,39.39
2018-06-20T10:17:09.956Z,39.63
2018-06-20T10:18:10.386Z,39.80
2018-06-20T10:19:10.866Z,39.73
2018-06-20T10:20:11.348Z,39.59
2018-06-20T10:21:11.859Z,39.83
2018-06-20T10:22:12.307Z,39.79
2018-06-20T10:23:12.786Z,39.72
2018-06-20T10:24:13.266Z,39.76
2018-06-20T10:25:13.746Z,39.72
2018-06-20T10:26:14.228Z,39.99
2018-06-20T10:27:14.708Z,39.92
2018-06-20T10:28:15.186Z,39.92
2018-06-20T10:29:15.668Z,40.03
2018-06-20T10:30:16.156Z,40.02
2018-06-20T10:31:16.633Z,39.82
2018-06-20T10:32:17.113Z,40.13
2018-06-20T10:33:17.591Z,40.20
2018-06-20T10:34:18.121Z,40.06
2018-06-20T10:35:18.552Z,40.30
2018-06-20T10:36:19.034Z,40.33
2018-06-20T10:37:19.513Z,40.26
2018-06-20T10:38:20.000Z,40.33
2018-06-20T10:39:20.474Z,40.33
2018-06-20T10:40:20.956Z,40.47
2018-06-20T10:41:21.437Z,40.40
2018-06-20T10:42:21.966Z,40.50
2018-06-20T10:43:22.397Z,40.67
2018-06-20T10:44:22.880Z,40.74
2018-06-20T10:45:23.358Z,40.68
2018-06-20T10:46:23.856Z,40.71
2018-06-20T10:47:24.370Z,40.85
2018-06-20T10:48:24.802Z,40.92
2018-06-20T10:49:25.307Z,40.81
2018-06-20T10:50:25.764Z,40.58
2018-06-20T10:51:26.248Z,40.68
2018-06-20T10:52:26.781Z,40.65
2018-06-20T10:53:27.206Z,40.75
2018-06-20T10:54:27.697Z,40.75
2018-06-20T10:55:28.166Z,40.96
2018-06-20T10:56:28.647Z,40.82
2018-06-20T10:57:29.178Z,40.89
2018-06-20T10:58:29.612Z,40.93
2018-06-20T10:59:30.090Z,41.10
2018-06-20T11:00:30.571Z,41.10
2018-06-20T11:01:31.052Z,41.13
2018-06-20T11:02:31.533Z,41.14
2018-06-20T11:03:32.018Z,41.14
2018-06-20T11:04:32.496Z,41.14
2018-06-20T11:05:32.977Z,41.38
2018-06-20T11:06:33.464Z,41.17
2018-06-20T11:07:33.940Z,41.24
2018-06-20T11:08:34.420Z,41.38
2018-06-20T11:09:34.936Z,41.18
2018-06-20T11:10:35.386Z,41.08
2018-06-20T11:11:35.866Z,41.04
2018-06-20T11:12:36.344Z,41.01
2018-06-20T11:13:36.825Z,40.94
2018-06-20T11:14:37.308Z,41.08
2018-06-20T11:15:37.792Z,41.01
2018-06-20T11:16:38.271Z,41.22
2018-06-20T11:17:38.751Z,41.12
2018-06-20T11:18:39.233Z,40.98
2018-06-20T11:19:39.714Z,41.02
2018-06-20T11:20:40.196Z,40.78
2018-06-20T11:21:40.675Z,40.78
2018-06-20T11:22:41.159Z,40.72
2018-06-20T11:23:41.641Z,40.78
2018-06-20T11:24:42.121Z,40.92
2018-06-20T11:25:42.606Z,40.92
2018-06-20T11:26:43.088Z,39.76
2018-06-20T11:27:43.565Z,40.04
2018-06-20T11:28:44.050Z,40.31
2018-06-20T11:29:44.532Z,40.41
2018-06-20T11:30:45.012Z,40.01
2018-06-20T11:31:45.492Z,40.59
2018-06-20T11:32:46.030Z,40.66
2018-06-20T11:33:46.455Z,39.63
2018-06-20T11:34:46.941Z,39.26
2018-06-20T11:35:47.418Z,39.64
2018-06-20T11:36:47.904Z,39.91
2018-06-20T11:37:48.433Z,40.28
2018-06-20T11:38:48.865Z,39.57
2018-06-20T11:39:49.346Z,40.08
2018-06-20T11:40:49.831Z,39.54
2018-06-20T11:41:50.310Z,39.30
2018-06-20T11:42:50.794Z,39.23
2018-06-20T11:43:51.272Z,39.06
2018-06-20T11:44:51.756Z,39.57
2018-06-20T11:45:52.277Z,40.09
2018-06-20T11:46:52.719Z,39.58
2018-06-20T11:47:53.252Z,39.51
2018-06-20T11:48:53.684Z,39.13
2018-06-20T11:49:54.167Z,39.89
2018-06-20T11:50:54.647Z,39.65
2018-06-20T11:51:55.128Z,39.72
2018-06-20T11:52:55.611Z,39.41
2018-06-20T11:53:56.092Z,39.65
2018-06-20T11:54:56.574Z,39.68
2018-06-20T11:55:57.057Z,39.72
2018-06-20T11:56:57.539Z,39.51
2018-06-20T11:57:58.080Z,39.17
2018-06-20T11:58:58.505Z,39.58
2018-06-20T11:59:58.984Z,39.69
2018-06-20T12:00:59.467Z,39.76
2018-06-20T12:01:59.949Z,39.65
2018-06-20T12:03:00.431Z,39.52
2018-06-20T12:04:00.948Z,39.11
2018-06-20T12:05:01.402Z,39.89
2018-06-20T12:06:01.881Z,39.31
2018-06-20T12:07:02.358Z,39.62
2018-06-20T12:08:02.840Z,39.52
2018-06-20T12:09:03.323Z,39.45
2018-06-20T12:10:03.806Z,39.73
2018-06-20T12:11:04.287Z,39.38
2018-06-20T12:12:04.769Z,39.73
2018-06-20T12:13:05.306Z,39.49
2018-06-20T12:14:05.735Z,39.18
2018-06-20T12:15:06.216Z,39.63
2018-06-20T12:16:06.701Z,39.73
2018-06-20T12:17:07.182Z,39.56
2018-06-20T12:18:07.662Z,39.80
2018-06-20T12:19:08.148Z,39.59
2018-06-20T12:20:08.629Z,39.11
2018-06-20T12:21:09.113Z,39.32
2018-06-20T12:22:09.595Z,39.80
2018-06-20T12:23:10.128Z,39.87
2018-06-20T12:24:10.558Z,39.94
2018-06-20T12:25:11.040Z,39.19
2018-06-20T12:26:11.521Z,39.87
2018-06-20T12:27:12.005Z,39.32
2018-06-20T12:28:12.583Z,39.19
2018-06-20T12:29:12.974Z,40.14
2018-06-20T12:30:13.452Z,40.15
2018-06-20T12:31:13.935Z,39.33
2018-06-20T12:32:14.417Z,39.33
2018-06-20T12:33:14.950Z,40.15
2018-06-20T12:34:15.380Z,39.60
2018-06-20T12:35:15.866Z,39.60
2018-06-20T12:36:16.349Z,40.36
2018-06-20T12:37:16.829Z,40.08
2018-06-20T12:38:17.311Z,40.36
2018-06-20T12:39:17.795Z,40.29
2018-06-20T12:40:18.277Z,39.81
2018-06-20T12:41:18.760Z,40.43
2018-06-20T12:42:19.242Z,40.70
2018-06-20T12:43:19.776Z,40.43
2018-06-20T12:44:20.211Z,40.84
2018-06-20T12:45:20.711Z,40.63
2018-06-20T12:46:21.172Z,40.74
2018-06-20T12:47:21.654Z,40.43
2018-06-20T12:48:22.141Z,40.43
2018-06-20T12:49:22.622Z,40.43
2018-06-20T12:50:23.103Z,40.91
2018-06-20T12:51:23.589Z,40.16
2018-06-20T12:52:24.074Z,40.37
2018-06-20T12:53:24.611Z,40.91
2018-06-20T12:54:25.036Z,40.84
2018-06-20T12:55:25.518Z,40.95
2018-06-20T12:56:26.004Z,40.84
2018-06-20T12:57:26.484Z,40.57
2018-06-20T12:58:27.016Z,40.34
2018-06-20T12:59:27.448Z,40.71